sensor_id;sensor_type;location;lat;lon;timestamp;P1;durP1;ratioP1;P2;durP2;ratioP2
76351;SDS011;65179;47.786;19.138;2023-01-20T00:00:02;11.30;;;5.03;;
76351;SDS011;65179;47.786;19.138;2023-01-20T00:02:28;9.80;;;5.13;;
76351;SDS011;65179;47.786;19.138;2023-01-20T00:04:54;8.80;;;4.65;;
76351;SDS011;65179;47.786;19.138;2023-01-20T00:07:19;8.90;;;5.03;;
76351;SDS011;65179;47.786;19.138;2023-01-20T00:09:45;10.57;;;5.47;;
76351;SDS011;65179;47.786;19.138;2023-01-20T00:12:10;11.47;;;5.53;;
76351;SDS011;65179;47.786;19.138;2023-01-20T00:14:36;10.75;;;5.25;;
76351;SDS011;65179;47.786;19.138;2023-01-20T00:17:01;10.60;;;5.03;;
76351;SDS011;65179;47.786;19.138;2023-01-20T00:19:26;10.63;;;4.80;;
76351;SDS011;65179;47.786;19.138;2023-01-20T00:21:52;8.30;;;5.10;;
76351;SDS011;65179;47.786;19.138;2023-01-20T00:24:18;10.25;;;5.45;;
76351;SDS011;65179;47.786;19.138;2023-01-20T00:26:43;11.23;;;6.00;;
76351;SDS011;65179;47.786;19.138;2023-01-20T00:29:09;10.35;;;5.75;;
76351;SDS011;65179;47.786;19.138;2023-01-20T00:31:34;10.43;;;5.27;;
76351;SDS011;65179;47.786;19.138;2023-01-20T00:34:00;10.30;;;5.23;;
76351;SDS011;65179;47.786;19.138;2023-01-20T00:36:27;9.45;;;5.12;;
76351;SDS011;65179;47.786;19.138;2023-01-20T00:38:55;10.20;;;5.10;;
76351;SDS011;65179;47.786;19.138;2023-01-20T00:41:21;9.30;;;4.47;;
76351;SDS011;65179;47.786;19.138;2023-01-20T00:43:47;10.93;;;5.20;;
76351;SDS011;65179;47.786;19.138;2023-01-20T00:46:13;9.90;;;5.05;;
76351;SDS011;65179;47.786;19.138;2023-01-20T00:48:39;10.68;;;4.90;;
76351;SDS011;65179;47.786;19.138;2023-01-20T00:51:05;9.10;;;4.97;;
76351;SDS011;65179;47.786;19.138;2023-01-20T00:53:31;10.57;;;5.50;;
76351;SDS011;65179;47.786;19.138;2023-01-20T00:55:56;10.73;;;5.20;;
76351;SDS011;65179;47.786;19.138;2023-01-20T00:58:22;11.07;;;5.22;;
76351;SDS011;65179;47.786;19.138;2023-01-20T01:00:48;9.23;;;5.00;;
76351;SDS011;65179;47.786;19.138;2023-01-20T01:03:15;10.63;;;5.45;;
76351;SDS011;65179;47.786;19.138;2023-01-20T01:05:41;9.80;;;4.80;;
76351;SDS011;65179;47.786;19.138;2023-01-20T01:08:07;10.77;;;5.00;;
76351;SDS011;65179;47.786;19.138;2023-01-20T01:10:33;10.15;;;5.65;;
76351;SDS011;65179;47.786;19.138;2023-01-20T01:12:59;10.07;;;5.30;;
76351;SDS011;65179;47.786;19.138;2023-01-20T01:15:25;10.15;;;5.37;;
76351;SDS011;65179;47.786;19.138;2023-01-20T01:17:51;10.85;;;5.47;;
76351;SDS011;65179;47.786;19.138;2023-01-20T01:20:17;10.23;;;5.50;;
76351;SDS011;65179;47.786;19.138;2023-01-20T01:22:43;10.90;;;5.28;;
76351;SDS011;65179;47.786;19.138;2023-01-20T01:25:08;11.23;;;5.83;;
76351;SDS011;65179;47.786;19.138;2023-01-20T01:27:34;10.60;;;5.60;;
76351;SDS011;65179;47.786;19.138;2023-01-20T01:30:00;10.95;;;5.65;;
76351;SDS011;65179;47.786;19.138;2023-01-20T01:32:26;11.37;;;6.10;;
76351;SDS011;65179;47.786;19.138;2023-01-20T01:34:51;10.85;;;5.37;;
76351;SDS011;65179;47.786;19.138;2023-01-20T01:37:17;10.27;;;5.20;;
76351;SDS011;65179;47.786;19.138;2023-01-20T01:39:42;11.63;;;5.75;;
76351;SDS011;65179;47.786;19.138;2023-01-20T01:42:09;10.15;;;4.68;;
76351;SDS011;65179;47.786;19.138;2023-01-20T01:45:08;10.38;;;5.62;;
76351;SDS011;65179;47.786;19.138;2023-01-20T01:47:48;11.57;;;5.47;;
76351;SDS011;65179;47.786;19.138;2023-01-20T01:50:25;9.82;;;5.18;;
76351;SDS011;65179;47.786;19.138;2023-01-20T01:52:57;10.85;;;5.53;;
76351;SDS011;65179;47.786;19.138;2023-01-20T01:55:24;12.13;;;6.20;;
76351;SDS011;65179;47.786;19.138;2023-01-20T01:57:55;10.93;;;4.30;;
76351;SDS011;65179;47.786;19.138;2023-01-20T02:00:22;9.70;;;4.70;;
76351;SDS011;65179;47.786;19.138;2023-01-20T02:02:47;9.70;;;5.53;;
76351;SDS011;65179;47.786;19.138;2023-01-20T02:05:13;12.40;;;6.05;;
76351;SDS011;65179;47.786;19.138;2023-01-20T02:07:41;9.63;;;4.95;;
76351;SDS011;65179;47.786;19.138;2023-01-20T02:10:09;10.77;;;5.20;;
76351;SDS011;65179;47.786;19.138;2023-01-20T02:12:35;10.50;;;4.95;;
76351;SDS011;65179;47.786;19.138;2023-01-20T02:15:00;11.10;;;5.63;;
76351;SDS011;65179;47.786;19.138;2023-01-20T02:44:26;14.02;;;6.85;;
76351;SDS011;65179;47.786;19.138;2023-01-20T02:49:39;11.60;;;6.10;;
76351;SDS011;65179;47.786;19.138;2023-01-20T02:52:23;12.18;;;6.03;;
76351;SDS011;65179;47.786;19.138;2023-01-20T02:54:52;13.30;;;6.10;;
76351;SDS011;65179;47.786;19.138;2023-01-20T02:57:25;10.20;;;5.75;;
76351;SDS011;65179;47.786;19.138;2023-01-20T02:59:58;12.55;;;5.82;;
76351;SDS011;65179;47.786;19.138;2023-01-20T03:02:28;14.87;;;6.40;;
76351;SDS011;65179;47.786;19.138;2023-01-20T03:04:59;13.90;;;6.90;;
76351;SDS011;65179;47.786;19.138;2023-01-20T03:07:30;12.90;;;6.40;;
76351;SDS011;65179;47.786;19.138;2023-01-20T03:10:00;13.80;;;6.45;;
76351;SDS011;65179;47.786;19.138;2023-01-20T03:12:30;14.23;;;6.62;;
76351;SDS011;65179;47.786;19.138;2023-01-20T03:15:04;12.50;;;6.35;;
76351;SDS011;65179;47.786;19.138;2023-01-20T03:17:31;11.52;;;6.62;;
76351;SDS011;65179;47.786;19.138;2023-01-20T03:19:57;14.07;;;6.80;;
76351;SDS011;65179;47.786;19.138;2023-01-20T03:22:23;14.15;;;6.90;;
76351;SDS011;65179;47.786;19.138;2023-01-20T03:24:48;13.40;;;6.27;;
76351;SDS011;65179;47.786;19.138;2023-01-20T03:27:15;14.32;;;7.12;;
76351;SDS011;65179;47.786;19.138;2023-01-20T03:29:40;16.47;;;6.90;;
76351;SDS011;65179;47.786;19.138;2023-01-20T03:32:06;13.00;;;6.63;;
76351;SDS011;65179;47.786;19.138;2023-01-20T03:34:34;15.25;;;7.00;;
76351;SDS011;65179;47.786;19.138;2023-01-20T03:37:03;15.02;;;7.50;;
76351;SDS011;65179;47.786;19.138;2023-01-20T03:39:29;13.85;;;6.37;;
76351;SDS011;65179;47.786;19.138;2023-01-20T03:50:09;14.85;;;7.03;;
76351;SDS011;65179;47.786;19.138;2023-01-20T03:53:00;13.00;;;6.85;;
76351;SDS011;65179;47.786;19.138;2023-01-20T03:58:22;13.20;;;7.10;;
76351;SDS011;65179;47.786;19.138;2023-01-20T04:00:52;13.23;;;6.55;;
76351;SDS011;65179;47.786;19.138;2023-01-20T04:03:24;13.73;;;6.53;;
76351;SDS011;65179;47.786;19.138;2023-01-20T04:05:53;13.85;;;6.80;;
76351;SDS011;65179;47.786;19.138;2023-01-20T04:08:22;14.40;;;6.80;;
76351;SDS011;65179;47.786;19.138;2023-01-20T04:10:53;13.50;;;6.22;;
76351;SDS011;65179;47.786;19.138;2023-01-20T04:13:21;12.00;;;6.40;;
76351;SDS011;65179;47.786;19.138;2023-01-20T04:15:48;14.33;;;6.23;;
76351;SDS011;65179;47.786;19.138;2023-01-20T04:18:15;13.75;;;6.35;;
76351;SDS011;65179;47.786;19.138;2023-01-20T04:20:43;12.68;;;5.85;;
76351;SDS011;65179;47.786;19.138;2023-01-20T04:23:13;13.82;;;6.93;;
76351;SDS011;65179;47.786;19.138;2023-01-20T04:25:47;13.83;;;6.53;;
76351;SDS011;65179;47.786;19.138;2023-01-20T04:28:13;13.45;;;6.93;;
76351;SDS011;65179;47.786;19.138;2023-01-20T04:30:38;14.07;;;6.63;;
76351;SDS011;65179;47.786;19.138;2023-01-20T04:33:04;13.77;;;6.70;;
76351;SDS011;65179;47.786;19.138;2023-01-20T04:35:29;14.45;;;6.82;;
76351;SDS011;65179;47.786;19.138;2023-01-20T04:37:55;15.43;;;7.35;;
76351;SDS011;65179;47.786;19.138;2023-01-20T04:40:20;14.33;;;7.03;;
76351;SDS011;65179;47.786;19.138;2023-01-20T04:42:46;16.30;;;7.47;;
76351;SDS011;65179;47.786;19.138;2023-01-20T04:45:15;15.97;;;8.33;;
76351;SDS011;65179;47.786;19.138;2023-01-20T04:47:41;14.77;;;8.15;;
76351;SDS011;65179;47.786;19.138;2023-01-20T04:50:07;14.32;;;7.65;;
76351;SDS011;65179;47.786;19.138;2023-01-20T04:52:34;16.62;;;8.43;;
76351;SDS011;65179;47.786;19.138;2023-01-20T04:54:59;16.50;;;8.70;;
76351;SDS011;65179;47.786;19.138;2023-01-20T04:57:25;21.00;;;8.47;;
76351;SDS011;65179;47.786;19.138;2023-01-20T04:59:50;18.90;;;9.43;;
76351;SDS011;65179;47.786;19.138;2023-01-20T05:02:16;19.95;;;9.07;;
76351;SDS011;65179;47.786;19.138;2023-01-20T05:04:41;17.47;;;8.23;;
76351;SDS011;65179;47.786;19.138;2023-01-20T05:07:07;19.50;;;9.63;;
76351;SDS011;65179;47.786;19.138;2023-01-20T05:09:32;17.60;;;9.75;;
76351;SDS011;65179;47.786;19.138;2023-01-20T05:11:58;18.40;;;8.73;;
76351;SDS011;65179;47.786;19.138;2023-01-20T05:14:23;15.90;;;7.63;;
76351;SDS011;65179;47.786;19.138;2023-01-20T05:16:48;18.50;;;8.53;;
76351;SDS011;65179;47.786;19.138;2023-01-20T05:19:14;17.27;;;8.33;;
76351;SDS011;65179;47.786;19.138;2023-01-20T05:21:39;15.02;;;7.32;;
76351;SDS011;65179;47.786;19.138;2023-01-20T05:24:06;17.77;;;8.07;;
76351;SDS011;65179;47.786;19.138;2023-01-20T05:26:32;16.83;;;8.32;;
76351;SDS011;65179;47.786;19.138;2023-01-20T05:28:58;16.55;;;7.82;;
76351;SDS011;65179;47.786;19.138;2023-01-20T05:31:24;16.57;;;7.67;;
76351;SDS011;65179;47.786;19.138;2023-01-20T05:33:49;19.02;;;8.20;;
76351;SDS011;65179;47.786;19.138;2023-01-20T05:36:15;16.20;;;8.50;;
76351;SDS011;65179;47.786;19.138;2023-01-20T05:38:40;17.90;;;8.30;;
76351;SDS011;65179;47.786;19.138;2023-01-20T05:41:06;17.25;;;8.63;;
76351;SDS011;65179;47.786;19.138;2023-01-20T05:43:33;19.58;;;8.45;;
76351;SDS011;65179;47.786;19.138;2023-01-20T05:45:58;17.00;;;7.85;;
76351;SDS011;65179;47.786;19.138;2023-01-20T05:48:24;16.87;;;7.57;;
76351;SDS011;65179;47.786;19.138;2023-01-20T05:50:50;16.20;;;7.15;;
76351;SDS011;65179;47.786;19.138;2023-01-20T05:53:16;14.47;;;6.13;;
76351;SDS011;65179;47.786;19.138;2023-01-20T05:55:42;12.32;;;6.32;;
76351;SDS011;65179;47.786;19.138;2023-01-20T05:58:08;16.90;;;7.28;;
76351;SDS011;65179;47.786;19.138;2023-01-20T06:00:33;11.50;;;5.73;;
76351;SDS011;65179;47.786;19.138;2023-01-20T06:02:59;16.60;;;7.12;;
76351;SDS011;65179;47.786;19.138;2023-01-20T06:05:25;16.27;;;6.47;;
76351;SDS011;65179;47.786;19.138;2023-01-20T06:07:50;15.38;;;6.70;;
76351;SDS011;65179;47.786;19.138;2023-01-20T06:10:18;13.43;;;6.10;;
76351;SDS011;65179;47.786;19.138;2023-01-20T06:12:49;16.00;;;7.18;;
76351;SDS011;65179;47.786;19.138;2023-01-20T06:15:16;15.50;;;7.07;;
76351;SDS011;65179;47.786;19.138;2023-01-20T06:17:41;17.23;;;7.87;;
76351;SDS011;65179;47.786;19.138;2023-01-20T06:20:08;16.73;;;7.53;;
76351;SDS011;65179;47.786;19.138;2023-01-20T06:22:34;17.60;;;8.68;;
76351;SDS011;65179;47.786;19.138;2023-01-20T06:25:00;19.20;;;8.33;;
76351;SDS011;65179;47.786;19.138;2023-01-20T06:27:25;22.60;;;9.20;;
76351;SDS011;65179;47.786;19.138;2023-01-20T06:29:51;17.50;;;8.53;;
76351;SDS011;65179;47.786;19.138;2023-01-20T06:32:16;21.10;;;9.10;;
76351;SDS011;65179;47.786;19.138;2023-01-20T06:34:42;19.95;;;9.15;;
76351;SDS011;65179;47.786;19.138;2023-01-20T06:37:07;18.97;;;9.43;;
76351;SDS011;65179;47.786;19.138;2023-01-20T06:39:32;23.40;;;11.40;;
76351;SDS011;65179;47.786;19.138;2023-01-20T06:41:58;29.33;;;12.00;;
76351;SDS011;65179;47.786;19.138;2023-01-20T06:44:24;27.15;;;10.85;;
76351;SDS011;65179;47.786;19.138;2023-01-20T06:46:51;22.80;;;10.38;;
76351;SDS011;65179;47.786;19.138;2023-01-20T06:49:16;20.53;;;9.70;;
76351;SDS011;65179;47.786;19.138;2023-01-20T06:51:43;20.00;;;9.48;;
76351;SDS011;65179;47.786;19.138;2023-01-20T06:54:08;16.25;;;7.82;;
76351;SDS011;65179;47.786;19.138;2023-01-20T06:56:34;20.17;;;7.97;;
76351;SDS011;65179;47.786;19.138;2023-01-20T06:58:59;18.52;;;8.10;;
76351;SDS011;65179;47.786;19.138;2023-01-20T07:01:26;17.17;;;7.87;;
76351;SDS011;65179;47.786;19.138;2023-01-20T07:03:53;16.35;;;6.53;;
76351;SDS011;65179;47.786;19.138;2023-01-20T07:08:44;16.37;;;6.97;;
76351;SDS011;65179;47.786;19.138;2023-01-20T07:11:10;17.33;;;6.93;;
76351;SDS011;65179;47.786;19.138;2023-01-20T07:13:36;17.02;;;7.43;;
76351;SDS011;65179;47.786;19.138;2023-01-20T07:16:02;17.90;;;7.90;;
76351;SDS011;65179;47.786;19.138;2023-01-20T07:18:27;19.30;;;8.98;;
76351;SDS011;65179;47.786;19.138;2023-01-20T07:20:53;19.00;;;8.13;;
76351;SDS011;65179;47.786;19.138;2023-01-20T07:23:19;16.67;;;7.85;;
76351;SDS011;65179;47.786;19.138;2023-01-20T07:25:45;17.05;;;7.90;;
76351;SDS011;65179;47.786;19.138;2023-01-20T07:28:10;16.90;;;7.33;;
76351;SDS011;65179;47.786;19.138;2023-01-20T07:30:36;16.80;;;7.43;;
76351;SDS011;65179;47.786;19.138;2023-01-20T07:33:01;16.40;;;7.37;;
76351;SDS011;65179;47.786;19.138;2023-01-20T07:35:27;18.12;;;8.30;;
76351;SDS011;65179;47.786;19.138;2023-01-20T07:37:53;17.05;;;7.78;;
76351;SDS011;65179;47.786;19.138;2023-01-20T07:40:19;18.25;;;8.02;;
76351;SDS011;65179;47.786;19.138;2023-01-20T07:42:44;21.57;;;9.40;;
76351;SDS011;65179;47.786;19.138;2023-01-20T07:45:10;21.98;;;9.35;;
76351;SDS011;65179;47.786;19.138;2023-01-20T07:47:35;35.37;;;16.83;;
76351;SDS011;65179;47.786;19.138;2023-01-20T07:50:01;35.57;;;15.80;;
76351;SDS011;65179;47.786;19.138;2023-01-20T07:52:26;27.20;;;12.47;;
76351;SDS011;65179;47.786;19.138;2023-01-20T07:54:52;23.42;;;10.55;;
76351;SDS011;65179;47.786;19.138;2023-01-20T07:57:17;23.77;;;11.47;;
76351;SDS011;65179;47.786;19.138;2023-01-20T07:59:43;27.83;;;12.97;;
76351;SDS011;65179;47.786;19.138;2023-01-20T08:02:08;22.97;;;10.90;;
76351;SDS011;65179;47.786;19.138;2023-01-20T08:04:34;24.12;;;11.05;;
76351;SDS011;65179;47.786;19.138;2023-01-20T08:06:59;19.27;;;10.17;;
76351;SDS011;65179;47.786;19.138;2023-01-20T08:09:25;19.63;;;9.87;;
76351;SDS011;65179;47.786;19.138;2023-01-20T08:11:50;19.30;;;8.80;;
76351;SDS011;65179;47.786;19.138;2023-01-20T08:14:16;18.53;;;9.53;;
76351;SDS011;65179;47.786;19.138;2023-01-20T08:16:41;20.03;;;9.50;;
76351;SDS011;65179;47.786;19.138;2023-01-20T08:19:07;19.37;;;9.60;;
76351;SDS011;65179;47.786;19.138;2023-01-20T08:21:32;20.27;;;9.55;;
76351;SDS011;65179;47.786;19.138;2023-01-20T08:23:58;22.17;;;11.40;;
76351;SDS011;65179;47.786;19.138;2023-01-20T08:26:25;20.67;;;11.27;;
76351;SDS011;65179;47.786;19.138;2023-01-20T08:28:53;21.30;;;10.82;;
76351;SDS011;65179;47.786;19.138;2023-01-20T08:31:21;20.00;;;10.60;;
76351;SDS011;65179;47.786;19.138;2023-01-20T08:33:52;18.13;;;10.13;;
76351;SDS011;65179;47.786;19.138;2023-01-20T08:36:20;22.75;;;9.65;;
76351;SDS011;65179;47.786;19.138;2023-01-20T08:38:50;22.50;;;10.02;;
76351;SDS011;65179;47.786;19.138;2023-01-20T08:41:17;21.37;;;9.67;;
76351;SDS011;65179;47.786;19.138;2023-01-20T08:43:45;21.48;;;9.77;;
76351;SDS011;65179;47.786;19.138;2023-01-20T08:46:12;20.88;;;9.85;;
76351;SDS011;65179;47.786;19.138;2023-01-20T08:48:39;20.00;;;9.73;;
76351;SDS011;65179;47.786;19.138;2023-01-20T08:51:07;17.03;;;9.13;;
76351;SDS011;65179;47.786;19.138;2023-01-20T08:53:40;19.37;;;9.18;;
76351;SDS011;65179;47.786;19.138;2023-01-20T08:56:06;19.60;;;8.93;;
76351;SDS011;65179;47.786;19.138;2023-01-20T08:58:32;19.58;;;9.90;;
76351;SDS011;65179;47.786;19.138;2023-01-20T09:00:58;20.37;;;9.93;;
76351;SDS011;65179;47.786;19.138;2023-01-20T09:03:24;17.98;;;9.18;;
76351;SDS011;65179;47.786;19.138;2023-01-20T09:05:51;17.85;;;9.43;;
76351;SDS011;65179;47.786;19.138;2023-01-20T09:08:16;16.50;;;8.47;;
76351;SDS011;65179;47.786;19.138;2023-01-20T09:10:43;18.95;;;8.02;;
76351;SDS011;65179;47.786;19.138;2023-01-20T09:13:09;18.58;;;8.77;;
76351;SDS011;65179;47.786;19.138;2023-01-20T09:15:34;19.87;;;9.32;;
76351;SDS011;65179;47.786;19.138;2023-01-20T09:18:00;19.35;;;8.95;;
76351;SDS011;65179;47.786;19.138;2023-01-20T09:20:26;18.30;;;9.00;;
76351;SDS011;65179;47.786;19.138;2023-01-20T09:22:53;17.55;;;8.85;;
76351;SDS011;65179;47.786;19.138;2023-01-20T09:25:18;18.23;;;8.57;;
76351;SDS011;65179;47.786;19.138;2023-01-20T09:27:44;18.27;;;9.13;;
76351;SDS011;65179;47.786;19.138;2023-01-20T09:30:09;18.37;;;8.90;;
76351;SDS011;65179;47.786;19.138;2023-01-20T09:32:35;20.67;;;10.10;;
76351;SDS011;65179;47.786;19.138;2023-01-20T09:35:01;16.87;;;8.07;;
76351;SDS011;65179;47.786;19.138;2023-01-20T09:37:26;18.30;;;9.77;;
76351;SDS011;65179;47.786;19.138;2023-01-20T09:40:15;18.58;;;9.20;;
76351;SDS011;65179;47.786;19.138;2023-01-20T09:43:21;18.77;;;9.50;;
76351;SDS011;65179;47.786;19.138;2023-01-20T09:46:28;19.27;;;9.18;;
76351;SDS011;65179;47.786;19.138;2023-01-20T09:51:47;20.58;;;9.88;;
76351;SDS011;65179;47.786;19.138;2023-01-20T09:54:44;19.00;;;9.80;;
76351;SDS011;65179;47.786;19.138;2023-01-20T09:57:14;24.60;;;9.90;;
76351;SDS011;65179;47.786;19.138;2023-01-20T09:59:49;28.73;;;11.05;;
76351;SDS011;65179;47.786;19.138;2023-01-20T10:02:20;28.00;;;10.77;;
76351;SDS011;65179;47.786;19.138;2023-01-20T10:04:51;18.12;;;9.35;;
76351;SDS011;65179;47.786;19.138;2023-01-20T10:07:37;22.75;;;10.30;;
76351;SDS011;65179;47.786;19.138;2023-01-20T10:10:21;22.08;;;10.85;;
76351;SDS011;65179;47.786;19.138;2023-01-20T10:15:28;23.93;;;10.60;;
76351;SDS011;65179;47.786;19.138;2023-01-20T10:26:08;18.73;;;8.70;;
76351;SDS011;65179;47.786;19.138;2023-01-20T10:28:42;21.37;;;9.70;;
76351;SDS011;65179;47.786;19.138;2023-01-20T10:31:31;22.23;;;9.43;;
76351;SDS011;65179;47.786;19.138;2023-01-20T10:34:06;18.65;;;9.75;;
76351;SDS011;65179;47.786;19.138;2023-01-20T10:36:36;20.35;;;10.63;;
76351;SDS011;65179;47.786;19.138;2023-01-20T10:39:16;21.10;;;9.95;;
76351;SDS011;65179;47.786;19.138;2023-01-20T10:42:02;19.23;;;10.13;;
76351;SDS011;65179;47.786;19.138;2023-01-20T10:44:31;21.45;;;9.95;;
76351;SDS011;65179;47.786;19.138;2023-01-20T10:54:45;20.90;;;10.30;;
76351;SDS011;65179;47.786;19.138;2023-01-20T10:57:23;20.00;;;9.95;;
76351;SDS011;65179;47.786;19.138;2023-01-20T10:59:51;20.48;;;9.32;;
76351;SDS011;65179;47.786;19.138;2023-01-20T11:02:22;19.63;;;9.47;;
76351;SDS011;65179;47.786;19.138;2023-01-20T11:04:53;18.85;;;9.35;;
76351;SDS011;65179;47.786;19.138;2023-01-20T11:07:23;17.60;;;9.70;;
76351;SDS011;65179;47.786;19.138;2023-01-20T11:09:50;22.77;;;10.43;;
76351;SDS011;65179;47.786;19.138;2023-01-20T11:12:16;22.37;;;10.20;;
76351;SDS011;65179;47.786;19.138;2023-01-20T11:14:45;19.83;;;10.23;;
76351;SDS011;65179;47.786;19.138;2023-01-20T11:17:13;19.35;;;9.57;;
76351;SDS011;65179;47.786;19.138;2023-01-20T11:19:48;18.98;;;10.32;;
76351;SDS011;65179;47.786;19.138;2023-01-20T11:22:32;19.27;;;9.60;;
76351;SDS011;65179;47.786;19.138;2023-01-20T11:25:00;19.12;;;8.90;;
76351;SDS011;65179;47.786;19.138;2023-01-20T11:27:36;28.60;;;10.95;;
76351;SDS011;65179;47.786;19.138;2023-01-20T11:30:49;22.45;;;11.02;;
76351;SDS011;65179;47.786;19.138;2023-01-20T11:33:08;25.75;;;12.27;;
76351;SDS011;65179;47.786;19.138;2023-01-20T11:38:30;21.65;;;10.02;;
76351;SDS011;65179;47.786;19.138;2023-01-20T11:40:58;24.55;;;11.10;;
76351;SDS011;65179;47.786;19.138;2023-01-20T11:43:30;22.63;;;11.23;;
76351;SDS011;65179;47.786;19.138;2023-01-20T11:46:10;24.92;;;11.38;;
76351;SDS011;65179;47.786;19.138;2023-01-20T11:48:47;24.17;;;11.55;;
76351;SDS011;65179;47.786;19.138;2023-01-20T11:51:17;28.17;;;13.30;;
76351;SDS011;65179;47.786;19.138;2023-01-20T11:53:44;27.73;;;13.17;;
76351;SDS011;65179;47.786;19.138;2023-01-20T11:56:13;26.27;;;12.45;;
76351;SDS011;65179;47.786;19.138;2023-01-20T12:01:59;23.35;;;10.82;;
76351;SDS011;65179;47.786;19.138;2023-01-20T12:07:20;18.33;;;10.20;;
76351;SDS011;65179;47.786;19.138;2023-01-20T12:09:53;22.02;;;11.05;;
76351;SDS011;65179;47.786;19.138;2023-01-20T12:12:26;20.45;;;10.88;;
76351;SDS011;65179;47.786;19.138;2023-01-20T12:15:39;23.30;;;11.38;;
76351;SDS011;65179;47.786;19.138;2023-01-20T12:17:55;21.95;;;10.95;;
76351;SDS011;65179;47.786;19.138;2023-01-20T12:23:53;19.25;;;10.32;;
76351;SDS011;65179;47.786;19.138;2023-01-20T12:26:26;23.83;;;11.73;;
76351;SDS011;65179;47.786;19.138;2023-01-20T12:29:01;23.15;;;12.65;;
76351;SDS011;65179;47.786;19.138;2023-01-20T12:31:27;23.60;;;10.95;;
76351;SDS011;65179;47.786;19.138;2023-01-20T12:33:59;20.57;;;11.07;;
76351;SDS011;65179;47.786;19.138;2023-01-20T12:59:37;23.70;;;11.25;;
76351;SDS011;65179;47.786;19.138;2023-01-20T13:15:41;21.63;;;10.77;;
76351;SDS011;65179;47.786;19.138;2023-01-20T13:18:52;21.87;;;12.07;;
76351;SDS011;65179;47.786;19.138;2023-01-20T13:21:15;21.10;;;10.32;;
76351;SDS011;65179;47.786;19.138;2023-01-20T13:23:41;21.87;;;9.98;;
76351;SDS011;65179;47.786;19.138;2023-01-20T13:26:07;22.73;;;11.27;;
76351;SDS011;65179;47.786;19.138;2023-01-20T13:28:33;23.60;;;12.17;;
76351;SDS011;65179;47.786;19.138;2023-01-20T13:30:59;22.27;;;11.68;;
76351;SDS011;65179;47.786;19.138;2023-01-20T13:38:40;21.00;;;10.32;;
76351;SDS011;65179;47.786;19.138;2023-01-20T13:41:07;24.58;;;11.57;;
76351;SDS011;65179;47.786;19.138;2023-01-20T13:51:49;19.25;;;9.70;;
76351;SDS011;65179;47.786;19.138;2023-01-20T13:56:47;23.50;;;11.15;;
76351;SDS011;65179;47.786;19.138;2023-01-20T13:59:13;21.50;;;11.40;;
76351;SDS011;65179;47.786;19.138;2023-01-20T14:01:38;23.67;;;11.95;;
76351;SDS011;65179;47.786;19.138;2023-01-20T14:06:47;21.30;;;11.65;;
76351;SDS011;65179;47.786;19.138;2023-01-20T14:09:18;25.77;;;13.03;;
76351;SDS011;65179;47.786;19.138;2023-01-20T14:11:48;26.20;;;12.80;;
76351;SDS011;65179;47.786;19.138;2023-01-20T14:14:17;26.83;;;12.55;;
76351;SDS011;65179;47.786;19.138;2023-01-20T14:16:43;26.17;;;12.10;;
76351;SDS011;65179;47.786;19.138;2023-01-20T14:19:26;24.58;;;12.57;;
76351;SDS011;65179;47.786;19.138;2023-01-20T14:21:55;23.53;;;12.23;;
76351;SDS011;65179;47.786;19.138;2023-01-20T14:27:18;20.80;;;11.23;;
76351;SDS011;65179;47.786;19.138;2023-01-20T14:29:44;25.55;;;13.45;;
76351;SDS011;65179;47.786;19.138;2023-01-20T14:32:15;24.60;;;12.52;;
76351;SDS011;65179;47.786;19.138;2023-01-20T14:34:42;24.37;;;12.70;;
76351;SDS011;65179;47.786;19.138;2023-01-20T14:37:22;25.27;;;12.50;;
76351;SDS011;65179;47.786;19.138;2023-01-20T14:39:49;26.12;;;13.20;;
76351;SDS011;65179;47.786;19.138;2023-01-20T14:42:18;25.15;;;12.55;;
76351;SDS011;65179;47.786;19.138;2023-01-20T14:44:46;30.33;;;13.27;;
76351;SDS011;65179;47.786;19.138;2023-01-20T14:47:12;30.10;;;14.73;;
76351;SDS011;65179;47.786;19.138;2023-01-20T14:49:38;26.02;;;12.77;;
76351;SDS011;65179;47.786;19.138;2023-01-20T14:52:05;27.45;;;13.48;;
76351;SDS011;65179;47.786;19.138;2023-01-20T15:05:30;25.90;;;13.05;;
76351;SDS011;65179;47.786;19.138;2023-01-20T15:08:05;26.15;;;13.65;;
76351;SDS011;65179;47.786;19.138;2023-01-20T15:10:46;26.90;;;13.40;;
76351;SDS011;65179;47.786;19.138;2023-01-20T15:13:31;23.58;;;12.02;;
76351;SDS011;65179;47.786;19.138;2023-01-20T15:16:14;22.58;;;12.37;;
76351;SDS011;65179;47.786;19.138;2023-01-20T15:18:43;20.17;;;10.27;;
76351;SDS011;65179;47.786;19.138;2023-01-20T15:21:29;24.60;;;12.15;;
76351;SDS011;65179;47.786;19.138;2023-01-20T15:23:54;27.98;;;13.65;;
76351;SDS011;65179;47.786;19.138;2023-01-20T15:26:30;24.00;;;12.30;;
76351;SDS011;65179;47.786;19.138;2023-01-20T15:28:56;22.35;;;10.48;;
76351;SDS011;65179;47.786;19.138;2023-01-20T15:31:22;25.10;;;12.80;;
76351;SDS011;65179;47.786;19.138;2023-01-20T15:33:49;24.42;;;12.40;;
76351;SDS011;65179;47.786;19.138;2023-01-20T15:36:19;24.23;;;12.00;;
76351;SDS011;65179;47.786;19.138;2023-01-20T15:38:45;25.90;;;11.97;;
76351;SDS011;65179;47.786;19.138;2023-01-20T15:41:11;25.25;;;12.40;;
76351;SDS011;65179;47.786;19.138;2023-01-20T15:43:37;25.37;;;11.23;;
76351;SDS011;65179;47.786;19.138;2023-01-20T15:46:12;22.73;;;11.38;;
76351;SDS011;65179;47.786;19.138;2023-01-20T15:48:39;24.48;;;12.35;;
76351;SDS011;65179;47.786;19.138;2023-01-20T15:51:05;24.97;;;12.23;;
76351;SDS011;65179;47.786;19.138;2023-01-20T15:53:36;26.83;;;11.23;;
76351;SDS011;65179;47.786;19.138;2023-01-20T15:56:01;25.10;;;11.77;;
76351;SDS011;65179;47.786;19.138;2023-01-20T15:58:30;24.77;;;11.80;;
76351;SDS011;65179;47.786;19.138;2023-01-20T16:00:59;23.73;;;11.15;;
76351;SDS011;65179;47.786;19.138;2023-01-20T16:03:25;26.10;;;11.82;;
76351;SDS011;65179;47.786;19.138;2023-01-20T16:05:52;19.92;;;9.88;;
76351;SDS011;65179;47.786;19.138;2023-01-20T16:08:20;24.25;;;11.57;;
76351;SDS011;65179;47.786;19.138;2023-01-20T16:10:47;23.45;;;11.60;;
76351;SDS011;65179;47.786;19.138;2023-01-20T16:13:13;24.52;;;11.52;;
76351;SDS011;65179;47.786;19.138;2023-01-20T16:15:39;19.80;;;9.52;;
76351;SDS011;65179;47.786;19.138;2023-01-20T16:18:13;19.65;;;9.57;;
76351;SDS011;65179;47.786;19.138;2023-01-20T16:20:41;20.92;;;10.70;;
76351;SDS011;65179;47.786;19.138;2023-01-20T16:23:11;22.13;;;9.80;;
76351;SDS011;65179;47.786;19.138;2023-01-20T16:25:37;19.13;;;9.03;;
76351;SDS011;65179;47.786;19.138;2023-01-20T16:28:19;18.00;;;8.93;;
76351;SDS011;65179;47.786;19.138;2023-01-20T16:30:47;19.55;;;10.27;;
76351;SDS011;65179;47.786;19.138;2023-01-20T16:33:19;19.77;;;9.68;;
76351;SDS011;65179;47.786;19.138;2023-01-20T16:35:48;19.33;;;9.18;;
76351;SDS011;65179;47.786;19.138;2023-01-20T16:38:15;19.48;;;9.65;;
76351;SDS011;65179;47.786;19.138;2023-01-20T16:41:01;14.65;;;8.13;;
76351;SDS011;65179;47.786;19.138;2023-01-20T16:43:29;17.15;;;9.55;;
76351;SDS011;65179;47.786;19.138;2023-01-20T16:45:55;20.43;;;10.37;;
76351;SDS011;65179;47.786;19.138;2023-01-20T16:48:21;22.87;;;11.57;;
76351;SDS011;65179;47.786;19.138;2023-01-20T16:50:48;20.77;;;10.93;;
76351;SDS011;65179;47.786;19.138;2023-01-20T16:53:14;17.77;;;9.23;;